createdAt,value
2022-08-09T00:00:04.400Z,102906.34
2022-08-09T00:02:34.041Z,102902.16
2022-08-09T00:06:16.585Z,102894.25
2022-08-09T00:07:48.312Z,102898.81
2022-08-09T00:10:21.007Z,102902.50
2022-08-09T00:12:52.272Z,102904.41
2022-08-09T00:15:26.317Z,102900.06
2022-08-09T00:18:10.731Z,102892.84
2022-08-09T00:20:41.369Z,102902.84
2022-08-09T00:23:55.577Z,102903.97
2022-08-09T00:25:55.312Z,102901.31
2022-08-09T00:28:23.376Z,102899.59
2022-08-09T00:30:54.058Z,102895.16
2022-08-09T00:33:20.475Z,102880.69
2022-08-09T00:36:00.874Z,102896.13
2022-08-09T00:38:27.983Z,102905.19
2022-08-09T00:40:55.238Z,102899.09
2022-08-09T00:44:17.149Z,102902.13
2022-08-09T00:46:11.201Z,102900.56
2022-08-09T00:48:56.218Z,102896.22
2022-08-09T00:51:23.070Z,102903.59
2022-08-09T00:53:53.201Z,102901.75
2022-08-09T00:56:19.664Z,102898.31
2022-08-09T00:58:48.971Z,102903.84
2022-08-09T01:01:20.726Z,102898.63
2022-08-09T01:03:56.804Z,102889.69
2022-08-09T01:06:54.419Z,102884.38
2022-08-09T01:09:21.293Z,102892.56
2022-08-09T01:12:00.872Z,102900.78
2022-08-09T01:14:41.446Z,102899.88
2022-08-09T01:17:17.989Z,102895.59
2022-08-09T01:19:57.051Z,102893.84
2022-08-09T01:22:52.092Z,102893.97
2022-08-09T01:26:00.371Z,102896.81
2022-08-09T01:28:27.682Z,102892.47
2022-08-09T01:30:58.962Z,102895.28
2022-08-09T01:33:28.057Z,102896.25
2022-08-09T01:36:08.829Z,102901.72
2022-08-09T01:38:38.631Z,102902.66
2022-08-09T01:41:15.025Z,102894.59
2022-08-09T01:43:52.521Z,102895.69
2022-08-09T01:46:25.028Z,102900.28
2022-08-09T01:48:59.678Z,102890.38
2022-08-09T01:51:27.939Z,102895.91
2022-08-09T01:54:01.246Z,102901.47
2022-08-09T01:56:30.538Z,102897.94
2022-08-09T01:59:01.556Z,102892.78
2022-08-09T02:01:57.680Z,102894.41
2022-08-09T02:04:18.191Z,102890.69
2022-08-09T02:07:04.316Z,102894.47
2022-08-09T02:09:41.874Z,102897.31
2022-08-09T02:12:13.364Z,102899.31
2022-08-09T02:14:51.741Z,102899.47
2022-08-09T02:18:01.630Z,102893.25
2022-08-09T02:20:10.342Z,102900.63
2022-08-09T02:22:46.442Z,102895.00
2022-08-09T02:25:19.404Z,102902.16
2022-08-09T02:28:00.510Z,102901.19
2022-08-09T02:30:37.590Z,102904.06
2022-08-09T02:33:08.023Z,102904.16
2022-08-09T02:36:01.290Z,102911.50
2022-08-09T02:38:34.868Z,102903.56
2022-08-09T02:41:13.182Z,102904.44
2022-08-09T02:43:54.493Z,102905.47
2022-08-09T02:46:27.286Z,102908.28
2022-08-09T02:48:56.736Z,102901.16
2022-08-09T02:51:26.569Z,102902.03
2022-08-09T02:54:00.429Z,102901.19
2022-08-09T02:56:28.106Z,102903.13
2022-08-09T02:58:56.093Z,102907.81
2022-08-09T03:01:29.708Z,102910.38
2022-08-09T03:04:19.306Z,102907.72
2022-08-09T03:06:48.765Z,102909.69
2022-08-09T03:09:17.606Z,102913.28
2022-08-09T03:12:05.372Z,102914.09
2022-08-09T03:14:32.840Z,102917.41
2022-08-09T03:17:01.527Z,102905.75
2022-08-09T03:19:52.487Z,102916.75
2022-08-09T03:22:25.121Z,102915.84
2022-08-09T03:25:05.842Z,102915.16
2022-08-09T03:27:45.336Z,102908.94
2022-08-09T03:30:13.533Z,102913.50
2022-08-09T03:32:41.574Z,102917.16
2022-08-09T03:35:14.837Z,102916.31
2022-08-09T03:37:56.127Z,102905.53
2022-08-09T03:40:24.952Z,102915.44
2022-08-09T03:42:51.565Z,102915.53
2022-08-09T03:46:04.228Z,102914.72
2022-08-09T03:48:04.777Z,102917.34
2022-08-09T03:50:34.889Z,102917.34
2022-08-09T03:53:06.123Z,102917.09
2022-08-09T03:55:40.817Z,102924.41
2022-08-09T03:58:14.917Z,102919.91
2022-08-09T04:00:44.247Z,102925.41
2022-08-09T04:03:24.856Z,102924.25
2022-08-09T04:05:58.660Z,102935.59
2022-08-09T04:08:28.910Z,102930.47
2022-08-09T04:10:56.070Z,102938.44
2022-08-09T04:14:37.008Z,102942.84
2022-08-09T04:16:19.509Z,102932.25
2022-08-09T04:18:47.706Z,102934.16
2022-08-09T04:21:15.821Z,102936.06
2022-08-09T04:23:53.967Z,102931.69
2022-08-09T04:26:24.173Z,102929.84
2022-08-09T04:28:50.640Z,102924.50
2022-08-09T04:31:17.095Z,102926.28
2022-08-09T04:33:51.539Z,102926.16
2022-08-09T04:36:19.921Z,102934.28
2022-08-09T04:38:46.446Z,102937.81
2022-08-09T04:41:15.090Z,102935.09
2022-08-09T04:43:46.669Z,102937.66
2022-08-09T04:46:36.564Z,102942.06
2022-08-09T04:49:15.384Z,102947.38
2022-08-09T04:51:42.203Z,102947.25
2022-08-09T04:54:08.899Z,102945.25
2022-08-09T04:56:37.047Z,102946.91
2022-08-09T04:59:12.978Z,102944.78
2022-08-09T05:01:42.585Z,102944.56
2022-08-09T05:04:09.221Z,102942.66
2022-08-09T05:06:36.905Z,102943.31
2022-08-09T05:09:03.679Z,102941.31
2022-08-09T05:11:32.399Z,102945.50
2022-08-09T05:14:05.831Z,102957.78
2022-08-09T05:16:58.225Z,102962.75
2022-08-09T05:19:26.226Z,102950.53
2022-08-09T05:21:58.334Z,102952.63
2022-08-09T05:24:25.148Z,102960.25
2022-08-09T05:26:52.978Z,102958.78
2022-08-09T05:29:22.092Z,102957.06
2022-08-09T05:31:57.737Z,102967.94
2022-08-09T05:34:32.848Z,102963.56
2022-08-09T05:37:06.385Z,102961.81
2022-08-09T05:39:42.382Z,102966.22
2022-08-09T05:42:17.566Z,102966.22
2022-08-09T05:44:52.921Z,102964.31
2022-08-09T05:47:24.157Z,102973.25
2022-08-09T05:50:25.632Z,102976.50
2022-08-09T05:52:43.841Z,102974.69
2022-08-09T05:55:18.153Z,102972.66
2022-08-09T05:57:55.759Z,102975.84
2022-08-09T06:00:28.642Z,102971.88
2022-08-09T06:03:00.093Z,102977.03
2022-08-09T06:05:57.631Z,102975.97
2022-08-09T06:08:19.283Z,102988.84
2022-08-09T06:10:52.123Z,102984.88
2022-08-09T06:13:20.517Z,102990.72
2022-08-09T06:15:52.387Z,102991.22
2022-08-09T06:18:24.042Z,102991.72
2022-08-09T06:20:57.707Z,103000.91
2022-08-09T06:23:58.662Z,102994.88
2022-08-09T06:26:20.128Z,102999.28
2022-08-09T06:29:00.481Z,102997.53
2022-08-09T06:31:31.290Z,102994.81
2022-08-09T06:33:58.752Z,103001.25
2022-08-09T06:36:29.757Z,102991.31
2022-08-09T06:38:57.577Z,102997.28
2022-08-09T06:41:39.573Z,102992.78
2022-08-09T06:44:14.259Z,102999.34
2022-08-09T06:46:45.482Z,102998.59
2022-08-09T06:49:11.896Z,103004.22
2022-08-09T06:51:39.983Z,103005.00
2022-08-09T06:54:06.630Z,103000.50
2022-08-09T06:56:38.914Z,103002.38
2022-08-09T07:00:55.468Z,103004.34
2022-08-09T07:02:03.894Z,103004.56
2022-08-09T07:04:31.743Z,103012.09
2022-08-09T07:07:00.638Z,103008.84
2022-08-09T07:09:54.991Z,103003.69
2022-08-09T07:12:18.126Z,103006.69
2022-08-09T07:14:45.935Z,103002.63
2022-08-09T07:17:18.601Z,103006.47
2022-08-09T07:19:45.004Z,102996.78
2022-08-09T07:22:14.790Z,103000.41
2022-08-09T07:24:49.242Z,102996.91
2022-08-09T07:27:27.273Z,103009.09
2022-08-09T07:30:01.534Z,103012.72
2022-08-09T07:32:32.189Z,103012.16
2022-08-09T07:35:00.896Z,103017.38
2022-08-09T07:37:29.374Z,103007.50
2022-08-09T07:39:56.056Z,103017.09
2022-08-09T07:42:26.092Z,103019.63
2022-08-09T07:45:02.581Z,103010.81
2022-08-09T07:47:33.377Z,103017.00
2022-08-09T07:50:16.202Z,103015.88
2022-08-09T07:52:43.643Z,103017.66
2022-08-09T07:55:13.892Z,103015.56
2022-08-09T07:57:46.545Z,103012.66
2022-08-09T08:00:20.499Z,103011.31
2022-08-09T08:03:04.865Z,103008.97
2022-08-09T08:05:54.136Z,103006.94
2022-08-09T08:09:01.314Z,103013.22
2022-08-09T08:12:09.357Z,103014.97
2022-08-09T08:13:56.313Z,103012.09
2022-08-09T08:16:30.017Z,103012.88
2022-08-09T08:18:58.749Z,103013.63
2022-08-09T08:21:25.195Z,103009.13
2022-08-09T08:23:55.873Z,103021.97
2022-08-09T08:26:41.716Z,103019.84
2022-08-09T08:29:09.382Z,103015.94
2022-08-09T08:32:02.400Z,103020.53
2022-08-09T08:34:25.584Z,103017.47
2022-08-09T08:36:52.523Z,103016.94
2022-08-09T08:39:19.065Z,103018.53
2022-08-09T08:41:51.440Z,103022.66
2022-08-09T08:44:27.269Z,103017.69
2022-08-09T08:46:59.498Z,103013.88
2022-08-09T08:49:38.443Z,103014.06
2022-08-09T08:52:48.584Z,103015.22
2022-08-09T08:55:03.968Z,103012.03
2022-08-09T08:57:34.831Z,103016.97
2022-08-09T09:00:02.368Z,103015.25
2022-08-09T09:02:35.398Z,103025.25
2022-08-09T09:05:05.854Z,103031.28
2022-08-09T09:07:37.397Z,103033.63
2022-08-09T09:10:10.919Z,103026.25
2022-08-09T09:12:38.220Z,103030.91
2022-08-09T09:15:06.468Z,103025.56
2022-08-09T09:17:49.446Z,103027.22
2022-08-09T09:20:20.696Z,103033.00
2022-08-09T09:23:01.874Z,103022.03
2022-08-09T09:26:05.097Z,103029.00
2022-08-09T09:29:02.843Z,103036.72
2022-08-09T09:31:17.522Z,103036.00
2022-08-09T09:34:14.639Z,103039.00
2022-08-09T09:36:46.707Z,103037.06
2022-08-09T09:39:22.922Z,103030.03
2022-08-09T09:41:51.309Z,103036.53
2022-08-09T09:44:31.507Z,103033.75
2022-08-09T09:47:11.648Z,103039.00
2022-08-09T09:50:06.993Z,103040.22
2022-08-09T09:52:36.927Z,103041.00
2022-08-09T09:55:28.778Z,103036.72
2022-08-09T09:58:19.287Z,103039.25
2022-08-09T10:00:54.247Z,103038.44
2022-08-09T10:03:57.043Z,103031.44
2022-08-09T10:06:42.620Z,103029.50
2022-08-09T10:09:23.276Z,103025.44
2022-08-09T10:12:11.704Z,103022.34
2022-08-09T10:14:47.705Z,103016.56
2022-08-09T10:17:40.102Z,103023.03
2022-08-09T10:20:04.247Z,103024.44
2022-08-09T10:22:33.604Z,103029.91
2022-08-09T10:25:03.363Z,103021.69
2022-08-09T10:27:38.447Z,103014.47
2022-08-09T10:30:44.000Z,103018.91
2022-08-09T10:32:56.104Z,103016.41
2022-08-09T10:35:23.553Z,103022.91
2022-08-09T10:37:53.393Z,103016.50
2022-08-09T10:40:35.064Z,103021.47
2022-08-09T10:43:05.344Z,103018.50
2022-08-09T10:45:35.626Z,103023.13
2022-08-09T10:48:30.189Z,103020.84
2022-08-09T10:51:17.657Z,103017.69
2022-08-09T10:53:59.755Z,103017.09
2022-08-09T10:56:33.799Z,103022.06
2022-08-09T10:59:23.299Z,103018.09
2022-08-09T11:03:11.675Z,103017.19
2022-08-09T11:04:37.668Z,103012.97
2022-08-09T11:07:27.154Z,103014.75
2022-08-09T11:10:13.712Z,103007.31
2022-08-09T11:12:45.028Z,103006.47
2022-08-09T11:15:19.252Z,103010.13
2022-08-09T11:17:47.982Z,103022.66
2022-08-09T11:20:38.688Z,103016.06
2022-08-09T11:23:09.982Z,103006.19
2022-08-09T11:25:46.042Z,103020.91
2022-08-09T11:28:38.692Z,103019.56
2022-08-09T11:31:49.213Z,103015.50
2022-08-09T11:34:20.956Z,103012.72
2022-08-09T11:36:48.220Z,103002.38
2022-08-09T11:39:15.386Z,103009.09
2022-08-09T11:41:43.224Z,103002.25
2022-08-09T11:44:11.901Z,102999.31
2022-08-09T11:46:57.855Z,102994.81
2022-08-09T11:50:53.735Z,102996.88
2022-08-09T11:53:15.750Z,102999.22
2022-08-09T11:55:52.163Z,102993.38
2022-08-09T11:58:30.453Z,103002.22
2022-08-09T12:01:08.551Z,102998.16
2022-08-09T12:03:55.679Z,102987.03
2022-08-09T12:06:26.846Z,102988.78
2022-08-09T12:09:01.100Z,102988.31
2022-08-09T12:11:29.089Z,102996.34
2022-08-09T12:14:07.102Z,102991.97
2022-08-09T12:16:40.639Z,102994.19
2022-08-09T12:19:12.192Z,102988.34
2022-08-09T12:21:48.802Z,102987.59
2022-08-09T12:24:23.823Z,102991.84
2022-08-09T12:28:58.818Z,102990.81
2022-08-09T12:29:52.311Z,102971.78
2022-08-09T12:32:27.606Z,102986.41
2022-08-09T12:35:03.170Z,102979.00
2022-08-09T12:37:50.196Z,102972.56
2022-08-09T12:40:18.865Z,102967.00
2022-08-09T12:42:46.467Z,102968.97
2022-08-09T12:45:33.764Z,102970.72
2022-08-09T12:48:10.789Z,102958.97
2022-08-09T12:50:48.889Z,102958.00
2022-08-09T12:53:36.677Z,102956.31
2022-08-09T12:56:39.313Z,102963.28
2022-08-09T12:59:13.817Z,102956.34
2022-08-09T13:01:49.681Z,102960.69
2022-08-09T13:04:37.017Z,102957.69
2022-08-09T13:07:19.534Z,102956.84
2022-08-09T13:09:55.051Z,102955.47
2022-08-09T13:12:28.047Z,102957.69
2022-08-09T13:15:07.161Z,102960.53
2022-08-09T13:18:03.108Z,102957.69
2022-08-09T13:20:37.363Z,102965.91
2022-08-09T13:24:16.422Z,102954.41
2022-08-09T13:26:04.051Z,102951.16
2022-08-09T13:28:34.486Z,102958.19
2022-08-09T13:32:13.347Z,102947.78
2022-08-09T13:33:56.700Z,102956.59
2022-08-09T13:36:41.279Z,102952.06
2022-08-09T13:41:55.413Z,102947.41
2022-08-09T13:42:05.579Z,102955.19
2022-08-09T13:44:42.068Z,102951.03
2022-08-09T13:47:27.186Z,102952.44
2022-08-09T13:50:01.241Z,102951.53
2022-08-09T13:52:33.371Z,102939.97
2022-08-09T13:55:04.636Z,102943.06
2022-08-09T13:57:47.345Z,102936.13
2022-08-09T14:00:23.004Z,102937.78
2022-08-09T14:03:57.857Z,102925.94
2022-08-09T14:06:00.570Z,102920.03
2022-08-09T14:08:30.651Z,102927.94
2022-08-09T14:10:59.645Z,102927.38
2022-08-09T14:14:24.515Z,102927.84
2022-08-09T14:16:19.831Z,102927.00
2022-08-09T14:18:58.119Z,102934.88
2022-08-09T14:21:26.986Z,102930.28
2022-08-09T14:23:57.283Z,102921.28
2022-08-09T14:26:32.865Z,102922.13
2022-08-09T14:29:03.022Z,102923.41
2022-08-09T14:31:49.622Z,102920.75
2022-08-09T14:34:17.511Z,102917.63
2022-08-09T14:36:54.103Z,102928.84
2022-08-09T14:39:20.526Z,102927.44
2022-08-09T14:42:06.963Z,102936.59
2022-08-09T14:44:48.187Z,102924.16
2022-08-09T14:47:41.201Z,102930.09
2022-08-09T14:50:02.741Z,102926.88
2022-08-09T14:52:29.375Z,102927.44
2022-08-09T14:54:55.879Z,102924.19
2022-08-09T14:57:22.637Z,102911.69
2022-08-09T14:59:58.578Z,102907.28
2022-08-09T15:02:25.035Z,102912.81
2022-08-09T15:04:51.547Z,102907.78
2022-08-09T15:07:17.973Z,102913.50
2022-08-09T15:10:03.571Z,102905.78
2022-08-09T15:12:32.428Z,102901.47
2022-08-09T15:14:59.105Z,102906.44
2022-08-09T15:17:25.720Z,102913.34
2022-08-09T15:19:59.109Z,102907.91
2022-08-09T15:22:26.514Z,102911.59
2022-08-09T15:24:53.816Z,102918.16
2022-08-09T15:27:21.138Z,102909.88
2022-08-09T15:30:55.390Z,102915.44
2022-08-09T15:32:35.000Z,102912.81
2022-08-09T15:35:01.808Z,102908.47
2022-08-09T15:37:37.476Z,102909.25
2022-08-09T15:40:25.254Z,102909.63
2022-08-09T15:42:58.376Z,102906.81
2022-08-09T15:45:29.257Z,102902.63
2022-08-09T15:48:05.634Z,102905.34
2022-08-09T15:50:39.222Z,102907.78
2022-08-09T15:53:18.922Z,102905.13
2022-08-09T15:56:21.045Z,102912.03
2022-08-09T15:58:44.872Z,102909.66
2022-08-09T16:01:13.309Z,102907.44
2022-08-09T16:03:41.489Z,102910.56
2022-08-09T16:06:27.255Z,102898.50
2022-08-09T16:08:55.972Z,102906.53
2022-08-09T16:11:22.622Z,102906.97
2022-08-09T16:14:05.301Z,102911.53
2022-08-09T16:16:37.118Z,102904.03
2022-08-09T16:19:06.125Z,102905.19
2022-08-09T16:21:34.982Z,102917.19
2022-08-09T16:24:03.064Z,102910.28
2022-08-09T16:26:33.544Z,102903.59
2022-08-09T16:29:13.224Z,102899.78
2022-08-09T16:32:19.940Z,102902.16
2022-08-09T16:34:29.553Z,102897.63
2022-08-09T16:37:16.132Z,102891.41
2022-08-09T16:39:48.143Z,102891.31
2022-08-09T16:42:29.164Z,102892.72
2022-08-09T16:44:56.030Z,102891.09
2022-08-09T16:48:40.919Z,102886.88
2022-08-09T16:50:31.851Z,102894.28
2022-08-09T16:52:56.140Z,102884.44
2022-08-09T16:55:23.358Z,102882.25
2022-08-09T16:58:10.096Z,102895.03
2022-08-09T17:00:36.743Z,102891.19
2022-08-09T17:03:05.145Z,102884.44
2022-08-09T17:06:07.518Z,102885.75
2022-08-09T17:08:42.775Z,102884.06
2022-08-09T17:11:07.156Z,102886.22
2022-08-09T17:13:34.404Z,102888.31
2022-08-09T17:16:02.429Z,102897.34
2022-08-09T17:18:29.888Z,102887.19
2022-08-09T17:20:57.041Z,102892.41
2022-08-09T17:23:23.826Z,102898.06
2022-08-09T17:26:10.396Z,102892.94
2022-08-09T17:28:39.048Z,102883.28
2022-08-09T17:31:05.665Z,102882.53
2022-08-09T17:33:35.866Z,102887.16
2022-08-09T17:36:04.851Z,102885.94
2022-08-09T17:38:37.113Z,102885.88
2022-08-09T17:41:06.350Z,102885.78
2022-08-09T17:43:37.381Z,102888.59
2022-08-09T17:46:07.628Z,102875.50
2022-08-09T17:48:38.778Z,102888.16
2022-08-09T17:51:18.113Z,102884.16
2022-08-09T17:53:52.228Z,102884.22
2022-08-09T17:56:26.625Z,102880.75
2022-08-09T17:58:54.562Z,102879.94
2022-08-09T18:01:24.248Z,102878.53
2022-08-09T18:03:54.777Z,102880.25
2022-08-09T18:06:31.727Z,102878.00
2022-08-09T18:09:03.119Z,102872.50
2022-08-09T18:11:32.132Z,102874.41
2022-08-09T18:14:21.885Z,102878.63
2022-08-09T18:16:49.794Z,102881.19
2022-08-09T18:20:56.680Z,102888.13
2022-08-09T18:22:03.930Z,102881.72
2022-08-09T18:24:31.116Z,102892.63
2022-08-09T18:26:57.890Z,102884.94
2022-08-09T18:30:38.840Z,102880.50
2022-08-09T18:32:14.353Z,102882.03
2022-08-09T18:34:45.701Z,102883.06
2022-08-09T18:37:48.069Z,102872.81
2022-08-09T18:40:01.719Z,102871.91
2022-08-09T18:42:29.430Z,102868.00
2022-08-09T18:44:57.087Z,102877.44
2022-08-09T18:47:27.711Z,102874.38
2022-08-09T18:50:03.300Z,102886.13
2022-08-09T18:52:35.544Z,102878.53
2022-08-09T18:55:03.708Z,102883.78
2022-08-09T18:57:38.538Z,102897.50
2022-08-09T19:00:11.491Z,102886.47
2022-08-09T19:02:44.050Z,102893.56
2022-08-09T19:05:19.994Z,102882.44
2022-08-09T19:08:04.613Z,102887.78
2022-08-09T19:10:39.370Z,102890.38
2022-08-09T19:13:20.149Z,102901.53
2022-08-09T19:15:51.017Z,102906.09
2022-08-09T19:18:37.408Z,102912.16
2022-08-09T19:21:08.918Z,102909.81
2022-08-09T19:24:31.981Z,102918.44
2022-08-09T19:26:29.591Z,102910.00
2022-08-09T19:29:01.688Z,102915.00
2022-08-09T19:31:30.546Z,102913.63
2022-08-09T19:34:21.302Z,102927.63
2022-08-09T19:36:57.448Z,102928.19
2022-08-09T19:39:43.028Z,102927.31
2022-08-09T19:42:14.728Z,102919.00
2022-08-09T19:44:49.559Z,102925.38
2022-08-09T19:47:23.258Z,102926.41
2022-08-09T19:50:07.564Z,102928.66
2022-08-09T19:52:49.804Z,102913.63
2022-08-09T19:55:30.642Z,102923.06
2022-08-09T19:58:16.081Z,102931.06
2022-08-09T20:00:46.189Z,102933.19
2022-08-09T20:04:17.987Z,102937.97
2022-08-09T20:06:03.346Z,102936.69
2022-08-09T20:08:34.876Z,102932.16
2022-08-09T20:11:09.578Z,102933.41
2022-08-09T20:13:37.924Z,102933.34
2022-08-09T20:16:37.128Z,102936.16
2022-08-09T20:19:42.438Z,102934.50
2022-08-09T20:21:40.636Z,102931.84
2022-08-09T20:24:29.822Z,102936.88
2022-08-09T20:27:01.430Z,102930.13
2022-08-09T20:29:32.612Z,102931.38
2022-08-09T20:32:28.793Z,102930.94
2022-08-09T20:34:51.544Z,102932.09
2022-08-09T20:37:21.467Z,102932.44
2022-08-09T20:40:16.120Z,102926.09
2022-08-09T20:42:35.870Z,102924.50
2022-08-09T20:46:00.802Z,102924.50
2022-08-09T20:47:51.669Z,102929.53
2022-08-09T20:50:47.859Z,102934.47
2022-08-09T20:53:04.594Z,102933.69
2022-08-09T20:55:47.173Z,102937.34
2022-08-09T20:58:28.520Z,102928.72
2022-08-09T21:01:02.460Z,102924.03
2022-08-09T21:05:49.643Z,102927.97
2022-08-09T21:06:35.016Z,102926.47
2022-08-09T21:09:02.448Z,102925.66
2022-08-09T21:14:16.719Z,102926.72
2022-08-09T21:16:44.149Z,102924.06
2022-08-09T21:20:18.050Z,102919.84
2022-08-09T21:21:59.037Z,102927.78
2022-08-09T21:24:28.456Z,102922.84
2022-08-09T21:26:55.720Z,102917.66
2022-08-09T21:29:22.864Z,102919.66
2022-08-09T21:31:49.841Z,102917.22
2022-08-09T21:34:28.808Z,102921.78
2022-08-09T21:36:56.448Z,102926.41
2022-08-09T21:39:27.723Z,102930.91
2022-08-09T21:42:03.937Z,102932.13
2022-08-09T21:44:35.318Z,102928.06
2022-08-09T21:47:05.903Z,102929.69
2022-08-09T21:49:39.858Z,102935.59
2022-08-09T21:52:17.179Z,102934.34
2022-08-09T21:54:59.452Z,102940.44
2022-08-09T21:57:38.438Z,102931.94
2022-08-09T22:00:26.033Z,102939.97
2022-08-09T22:02:58.876Z,102938.97
2022-08-09T22:05:36.819Z,102938.28
2022-08-09T22:08:11.893Z,102937.69
2022-08-09T22:11:00.877Z,102936.75
2022-08-09T22:13:34.108Z,102940.72
2022-08-09T22:16:03.693Z,102934.34
2022-08-09T22:18:32.771Z,102942.19
2022-08-09T22:21:00.200Z,102938.50
2022-08-09T22:23:27.065Z,102934.97
2022-08-09T22:26:05.977Z,102925.06
2022-08-09T22:28:47.254Z,102933.38
2022-08-09T22:31:20.659Z,102934.34
2022-08-09T22:33:48.872Z,102927.78
2022-08-09T22:36:21.602Z,102936.88
2022-08-09T22:38:48.795Z,102932.75
2022-08-09T22:41:15.261Z,102933.97
2022-08-09T22:44:01.755Z,102935.09
2022-08-09T22:48:17.750Z,102932.75
2022-08-09T22:49:16.071Z,102925.44
2022-08-09T22:51:49.210Z,102925.75
2022-08-09T22:54:17.217Z,102931.06
2022-08-09T22:56:48.095Z,102927.00
2022-08-09T22:59:56.207Z,102922.06
2022-08-09T23:02:07.658Z,102921.38
2022-08-09T23:04:34.593Z,102915.06
2022-08-09T23:08:23.173Z,102907.16
2022-08-09T23:10:10.464Z,102917.13
2022-08-09T23:12:37.074Z,102908.41
2022-08-09T23:15:04.833Z,102906.78
2022-08-09T23:17:31.311Z,102908.41
2022-08-09T23:20:00.736Z,102911.03
2022-08-09T23:22:34.295Z,102916.47
2022-08-09T23:25:04.477Z,102909.78
2022-08-09T23:27:31.188Z,102910.81
2022-08-09T23:29:57.600Z,102909.81
2022-08-09T23:32:24.066Z,102911.84
2022-08-09T23:34:50.487Z,102907.69
2022-08-09T23:37:17.115Z,102913.25
2022-08-09T23:39:48.282Z,102901.56
2022-08-09T23:42:14.914Z,102906.19
2022-08-09T23:44:41.708Z,102907.16
2022-08-09T23:47:08.148Z,102902.66
2022-08-09T23:49:34.579Z,102915.38
2022-08-09T23:52:01.051Z,102906.63
2022-08-09T23:54:27.604Z,102906.91
2022-08-09T23:56:56.107Z,102905.91
2022-08-09T23:59:23.712Z,102909.34
